Time;durP1;ratioP1;P1;durP2;ratioP2;P2;SDS_P1;SDS_P2;PMS_P1;PMS_P2;Temp;Humidity;BMP_temperature;BMP_pressure;BME280_temperature;BME280_humidity;BME280_pressure;Samples;Min_cycle;Max_cycle;Signal;HPM_P1;HPM_P2
2021/03/11 00:05:13;;;;;;;19.70;8.77;;;4.20;58.30;;;;;;4881466;29;20108;-84
2021/03/11 00:11:01;;;;;;;19.50;9.35;;;4.30;58.50;;;;;;4881429;29;20097;-84
2021/03/11 00:16:50;;;;;;;21.65;8.32;;;4.40;58.50;;;;;;4881429;29;20044;-84
2021/03/11 00:22:39;;;;;;;17.05;8.20;;;4.50;58.70;;;;;;4881202;29;20528;-84
2021/03/11 00:28:27;;;;;;;16.02;7.78;;;4.50;58.60;;;;;;4881119;29;20476;-85
2021/03/11 00:34:15;;;;;;;19.63;9.05;;;4.60;58.60;;;;;;4880746;29;20091;-84
2021/03/11 00:43:59;;;;;;;17.55;8.43;;;4.60;58.70;;;;;;4880843;29;20136;-84
2021/03/11 00:49:48;;;;;;;22.48;9.80;;;4.70;58.70;;;;;;4880803;29;20044;-85
2021/03/11 00:55:36;;;;;;;21.23;9.55;;;4.80;58.90;;;;;;4881067;29;20041;-83
2021/03/11 01:01:24;;;;;;;20.00;9.25;;;4.80;58.70;;;;;;4880548;29;20058;-85
2021/03/11 01:07:16;;;;;;;18.27;8.35;;;4.80;58.90;;;;;;4880307;29;20777;-84
2021/03/11 01:13:05;;;;;;;16.10;8.02;;;4.90;59.00;;;;;;4880354;29;20056;-84
2021/03/11 01:18:54;;;;;;;19.80;8.43;;;5.00;59.00;;;;;;4880231;29;20044;-85
2021/03/11 01:24:41;;;;;;;16.45;8.07;;;5.00;59.00;;;;;;4880715;29;20398;-85
2021/03/11 01:30:30;;;;;;;18.83;8.93;;;5.00;59.00;;;;;;4880267;29;20149;-83
2021/03/11 01:36:18;;;;;;;19.38;9.23;;;5.00;59.00;;;;;;4880522;29;20077;-83
2021/03/11 01:46:00;;;;;;;19.02;8.02;;;5.10;59.20;;;;;;4880417;29;20514;-84
2021/03/11 01:51:48;;;;;;;18.27;8.20;;;5.20;59.40;;;;;;4884034;29;20079;-83
2021/03/11 01:57:37;;;;;;;17.85;8.30;;;5.40;59.50;;;;;;4883963;29;20048;-84
2021/03/11 02:03:26;;;;;;;18.92;8.20;;;5.50;59.50;;;;;;4884048;29;20124;-84
2021/03/11 02:09:15;;;;;;;16.30;7.28;;;5.50;59.60;;;;;;4883841;29;20068;-84
2021/03/11 02:15:13;;;;;;;18.73;8.55;;;5.60;59.50;;;;;;4883667;29;20067;-84
2021/03/11 02:21:20;;;;;;;15.70;7.65;;;5.60;59.50;;;;;;4883746;29;20040;-84
2021/03/11 02:27:32;;;;;;;18.20;7.30;;;5.60;59.40;;;;;;4883691;29;20119;-83
2021/03/11 03:04:02;;;;;;;15.02;6.93;;;6.00;59.60;;;;;;4882786;29;20434;-84
2021/03/11 03:09:53;;;;;;;15.60;7.68;;;6.00;59.80;;;;;;4882424;29;20502;-84
2021/03/11 03:15:43;;;;;;;16.98;7.25;;;6.00;59.70;;;;;;4882205;29;20085;-84
2021/03/11 03:21:32;;;;;;;17.27;7.63;;;6.10;59.90;;;;;;4882445;29;20469;-85
2021/03/11 03:27:20;;;;;;;16.23;7.05;;;6.10;59.80;;;;;;4882899;29;20116;-83
2021/03/11 03:33:08;;;;;;;14.13;6.95;;;6.20;59.90;;;;;;4882125;29;20061;-84
2021/03/11 03:38:57;;;;;;;14.60;6.90;;;6.20;59.80;;;;;;4881875;29;20043;-84
2021/03/11 03:44:47;;;;;;;14.80;6.93;;;6.30;59.90;;;;;;4881902;29;20036;-85
2021/03/11 03:50:37;;;;;;;17.05;7.63;;;6.30;59.70;;;;;;4881415;29;20105;-85
2021/03/11 03:56:30;;;;;;;14.65;7.22;;;6.30;59.90;;;;;;4881578;29;20073;-86
2021/03/11 04:06:13;;;;;;;15.93;7.45;;;6.30;59.90;;;;;;4881531;29;20051;-86
2021/03/11 04:12:02;;;;;;;13.80;6.97;;;6.30;60.00;;;;;;4880752;29;20044;-84
2021/03/11 04:17:52;;;;;;;15.32;7.47;;;6.40;60.00;;;;;;4881404;29;20048;-85
2021/03/11 04:23:41;;;;;;;13.50;6.40;;;6.40;59.90;;;;;;4881136;29;20132;-85
2021/03/11 04:29:31;;;;;;;14.30;6.63;;;6.30;60.00;;;;;;4881199;29;20081;-85
2021/03/11 04:35:19;;;;;;;15.55;7.60;;;6.30;60.00;;;;;;4881003;29;20506;-85
2021/03/11 04:41:09;;;;;;;15.85;8.00;;;6.30;60.00;;;;;;4880819;29;20089;-85
2021/03/11 04:46:57;;;;;;;14.98;7.35;;;6.30;60.00;;;;;;4880777;29;20080;-85
2021/03/11 04:52:46;;;;;;;15.90;7.32;;;6.40;60.20;;;;;;4880504;29;20076;-85
2021/03/11 04:58:36;;;;;;;15.05;7.05;;;6.40;60.20;;;;;;4880456;29;20064;-86
2021/03/11 05:08:18;;;;;;;13.80;6.72;;;6.40;60.10;;;;;;4880521;29;20167;-84
2021/03/11 05:14:06;;;;;;;15.75;7.38;;;6.40;60.30;;;;;;4880672;29;20121;-86
2021/03/11 05:19:54;;;;;;;15.90;7.05;;;6.40;60.30;;;;;;4880279;29;20120;-84
2021/03/11 05:25:42;;;;;;;15.25;7.68;;;6.30;60.10;;;;;;4880301;29;20035;-85
2021/03/11 05:31:31;;;;;;;15.68;7.05;;;6.30;60.20;;;;;;4880033;29;20497;-85
2021/03/11 05:37:19;;;;;;;19.67;9.48;;;6.30;60.50;;;;;;4879979;29;20036;-86
2021/03/11 05:43:09;;;;;;;16.38;8.25;;;6.40;60.50;;;;;;4880448;29;20535;-86
2021/03/11 05:48:58;;;;;;;16.98;7.43;;;6.40;60.60;;;;;;4886928;29;20036;-86
2021/03/11 05:54:47;;;;;;;15.02;6.95;;;6.40;60.60;;;;;;4880132;29;20066;-84
2021/03/11 06:00:36;;;;;;;16.67;8.40;;;6.50;60.70;;;;;;4880037;29;20442;-84
2021/03/11 06:10:22;;;;;;;15.48;8.13;;;6.60;60.90;;;;;;4879946;29;20064;-84
2021/03/11 06:16:18;;;;;;;16.15;7.35;;;6.60;60.90;;;;;;4880235;29;20101;-80
2021/03/11 06:22:07;;;;;;;13.50;7.28;;;6.70;61.20;;;;;;4879653;29;20485;-81
2021/03/11 06:27:55;;;;;;;16.33;7.32;;;6.90;61.40;;;;;;4883144;29;20061;-92
2021/03/11 06:33:44;;;;;;;16.00;7.50;;;7.00;61.40;;;;;;4881044;29;20040;-88
2021/03/11 06:39:34;;;;;;;15.02;7.05;;;7.10;61.10;;;;;;4883927;29;20032;-88
2021/03/11 06:45:29;;;;;;;15.32;7.07;;;7.20;61.20;;;;;;4882840;29;20077;-78
2021/03/11 06:51:19;;;;;;;14.50;6.85;;;7.30;61.50;;;;;;4882674;29;20055;-79
2021/03/11 06:57:08;;;;;;;15.15;7.07;;;7.40;61.50;;;;;;4882806;29;20048;-80
2021/03/11 07:03:00;;;;;;;15.40;7.32;;;7.60;61.60;;;;;;4882471;29;20402;-80
2021/03/11 07:12:53;;;;;;;14.32;6.38;;;7.70;61.50;;;;;;4882274;29;20052;-80
2021/03/11 07:18:41;;;;;;;12.82;6.18;;;7.70;61.70;;;;;;4882253;29;20036;-82
2021/03/11 07:24:38;;;;;;;13.23;6.18;;;7.90;61.80;;;;;;4882201;29;20077;-80
2021/03/11 07:30:26;;;;;;;14.25;7.20;;;8.10;62.30;;;;;;4881817;29;20044;-81
2021/03/11 07:36:15;;;;;;;15.15;7.13;;;8.40;62.10;;;;;;4882177;29;20044;-81
2021/03/11 07:42:08;;;;;;;12.75;6.13;;;8.60;62.30;;;;;;4882018;29;20377;-81
2021/03/11 07:48:00;;;;;;;14.48;6.80;;;8.70;62.30;;;;;;4881075;29;20059;-81
2021/03/11 07:53:49;;;;;;;14.98;7.20;;;8.90;62.10;;;;;;4881822;29;20531;-81
2021/03/11 07:59:44;;;;;;;15.63;7.00;;;9.00;62.20;;;;;;4881639;29;20043;-81
2021/03/11 08:05:34;;;;;;;12.60;5.85;;;9.20;62.40;;;;;;4881413;29;20081;-82
2021/03/11 08:15:26;;;;;;;12.82;6.18;;;9.50;62.10;;;;;;4881610;29;20445;-83
2021/03/11 08:21:24;;;;;;;14.38;6.38;;;9.70;62.20;;;;;;4881489;29;20101;-82
2021/03/11 08:27:30;;;;;;;10.45;5.22;;;9.80;62.20;;;;;;4881227;29;20538;-81
2021/03/11 08:33:21;;;;;;;11.27;5.22;;;9.90;62.60;;;;;;4881052;29;20044;-82
2021/03/11 08:39:34;;;;;;;12.48;5.70;;;10.20;62.30;;;;;;4880875;29;20397;-82
2021/03/11 08:45:37;;;;;;;10.93;5.00;;;10.20;62.20;;;;;;4880725;29;20072;-83
2021/03/11 08:51:25;;;;;;;11.98;5.20;;;10.60;63.00;;;;;;4880475;29;20056;-82
2021/03/11 08:57:42;;;;;;;10.45;4.90;;;10.90;62.80;;;;;;4880290;29;20035;-82
2021/03/11 09:03:50;;;;;;;9.10;4.53;;;11.30;63.20;;;;;;4880496;29;20040;-81
2021/03/11 09:09:48;;;;;;;6.28;2.78;;;11.70;63.40;;;;;;4880321;29;20039;-84
2021/03/11 09:15:38;;;;;;;9.45;3.60;;;12.00;62.70;;;;;;4880277;29;20061;-82
2021/03/11 09:21:35;;;;;;;9.55;3.65;;;12.10;62.60;;;;;;4880186;29;20055;-81
2021/03/11 09:27:28;;;;;;;8.27;3.75;;;12.20;62.60;;;;;;4880011;29;20088;-80
2021/03/11 09:33:20;;;;;;;4.95;2.38;;;12.50;63.10;;;;;;4880238;29;20064;-81
2021/03/11 09:39:08;;;;;;;7.00;3.10;;;12.80;62.60;;;;;;4880196;29;20029;-81
2021/03/11 09:44:56;;;;;;;8.05;3.58;;;12.90;62.60;;;;;;4879927;29;20079;-81
2021/03/11 09:51:06;;;;;;;10.35;3.42;;;12.90;62.00;;;;;;4879947;29;20056;-82
2021/03/11 09:56:54;;;;;;;7.85;3.22;;;12.90;62.00;;;;;;4879817;29;20397;-81
2021/03/11 10:02:54;;;;;;;6.10;2.78;;;13.00;62.10;;;;;;4879676;29;20044;-81
2021/03/11 10:08:44;;;;;;;8.77;3.53;;;12.90;61.60;;;;;;4879693;29;20052;-81
2021/03/11 10:18:34;;;;;;;4.60;2.10;;;13.00;62.00;;;;;;4883579;29;20051;-83
2021/03/11 10:24:42;;;;;;;5.75;2.35;;;13.40;62.90;;;;;;4883018;29;20040;-82
2021/03/11 10:30:31;;;;;;;7.85;2.90;;;14.00;63.00;;;;;;4883134;29;20036;-82
2021/03/11 10:36:20;;;;;;;6.70;2.90;;;14.60;63.40;;;;;;4883260;29;20079;-82
2021/03/11 10:42:08;;;;;;;8.15;3.50;;;15.00;62.70;;;;;;4883169;29;20044;-82
2021/03/11 10:48:06;;;;;;;6.18;2.67;;;15.20;61.50;;;;;;4883023;29;20501;-83
2021/03/11 10:53:54;;;;;;;8.00;2.90;;;15.20;61.60;;;;;;4882519;29;20500;-82
2021/03/11 11:00:04;;;;;;;7.20;2.83;;;15.30;61.20;;;;;;4882821;29;20080;-82
2021/03/11 11:05:54;;;;;;;5.97;2.78;;;15.10;60.90;;;;;;4884663;29;20462;-83
2021/03/11 11:11:43;;;;;;;5.00;2.38;;;14.90;60.90;;;;;;4882337;29;20056;-84
2021/03/11 11:21:33;;;;;;;7.10;2.55;;;14.70;60.90;;;;;;4881256;29;20048;-83
2021/03/11 11:27:22;;;;;;;6.60;2.30;;;14.90;61.60;;;;;;4882338;29;20043;-84
2021/03/11 11:33:11;;;;;;;7.25;2.40;;;15.20;61.60;;;;;;4882139;29;20056;-82
2021/03/11 11:38:59;;;;;;;3.72;1.55;;;15.20;60.60;;;;;;4882283;29;20510;-82
2021/03/11 11:44:48;;;;;;;4.30;1.85;;;15.40;61.30;;;;;;4881787;29;20087;-81
2021/03/11 11:50:37;;;;;;;4.47;1.80;;;15.40;60.50;;;;;;4881475;29;20085;-83
2021/03/11 11:56:25;;;;;;;4.15;1.77;;;15.40;60.70;;;;;;4881762;29;20043;-84
2021/03/11 12:02:14;;;;;;;4.68;2.20;;;15.40;60.40;;;;;;4881730;29;20075;-84
2021/03/11 12:08:03;;;;;;;5.00;2.30;;;15.30;60.20;;;;;;4881516;29;20036;-84
2021/03/11 12:13:52;;;;;;;4.72;2.40;;;15.30;60.10;;;;;;4881451;29;20087;-83
2021/03/11 12:23:33;;;;;;;5.05;2.20;;;14.90;59.70;;;;;;4881348;29;20039;-82
2021/03/11 12:29:21;;;;;;;7.68;2.80;;;14.90;60.10;;;;;;4880813;29;20497;-82
2021/03/11 12:35:09;;;;;;;2.78;1.38;;;14.80;60.10;;;;;;4880612;29;20140;-82
2021/03/11 12:40:58;;;;;;;4.28;2.17;;;14.70;60.10;;;;;;4880940;29;20040;-81
2021/03/11 12:46:46;;;;;;;2.92;1.80;;;14.90;61.40;;;;;;4880571;29;20036;-82
2021/03/11 12:52:35;;;;;;;1.20;0.88;;;15.20;62.60;;;;;;4880460;29;20140;-81
2021/03/11 12:58:23;;;;;;;3.40;1.67;;;15.90;62.90;;;;;;4880628;29;20027;-84
2021/03/11 13:04:12;;;;;;;3.30;1.60;;;16.60;62.40;;;;;;4880216;29;20036;-82
2021/03/11 13:10:02;;;;;;;5.10;1.80;;;16.20;60.60;;;;;;4880139;29;20089;-82
2021/03/11 13:15:54;;;;;;;4.07;1.67;;;16.20;61.90;;;;;;4880340;29;20426;-82
2021/03/11 13:25:37;;;;;;;2.60;1.50;;;17.30;62.80;;;;;;4880418;29;20051;-83
2021/03/11 13:31:07;;;;;;;1.08;0.98;;;18.40;64.60;;;;;;4880135;29;20078;-81
2021/03/11 13:36:54;;;;;;;4.03;1.27;;;18.10;60.90;;;;;;4880209;29;20116;-83
2021/03/11 13:42:43;;;;;;;1.65;1.30;;;17.50;59.50;;;;;;4880064;29;20541;-80
2021/03/11 13:48:31;;;;;;;1.52;1.17;;;17.00;59.40;;;;;;4883857;29;20096;-80
2021/03/11 13:54:19;;;;;;;0.95;0.90;;;16.70;59.60;;;;;;4883820;29;20059;-80
2021/03/11 14:00:09;;;;;;;2.33;1.40;;;16.30;60.00;;;;;;4883713;29;20044;-81
2021/03/11 14:05:57;;;;;;;4.15;1.90;;;16.10;60.10;;;;;;4883939;29;20526;-81
2021/03/11 14:11:47;;;;;;;3.05;1.40;;;16.00;60.30;;;;;;4883544;29;20048;-81
2021/03/11 14:17:36;;;;;;;4.20;1.73;;;15.70;60.00;;;;;;4883229;29;20040;-82
2021/03/11 14:23:25;;;;;;;1.75;1.20;;;15.40;60.10;;;;;;4881838;29;20398;-82
2021/03/11 14:29:14;;;;;;;2.15;1.65;;;15.30;60.60;;;;;;4883179;29;20036;-83
2021/03/11 14:35:04;;;;;;;1.10;1.00;;;15.30;60.60;;;;;;4884056;29;20048;-85
2021/03/11 14:40:52;;;;;;;3.50;1.20;;;15.10;60.50;;;;;;4883444;29;20148;-83
2021/03/11 14:46:43;;;;;;;2.00;1.42;;;15.00;60.90;;;;;;4882877;29;20051;-83
2021/03/11 14:52:31;;;;;;;0.70;0.70;;;15.20;61.80;;;;;;4882572;29;20071;-82
2021/03/11 14:58:21;;;;;;;2.20;0.75;;;15.50;61.60;;;;;;4883685;29;20036;-83
2021/03/11 15:04:09;;;;;;;0.82;0.82;;;15.40;60.50;;;;;;4882548;29;20033;-81
2021/03/11 15:09:57;;;;;;;1.40;0.88;;;15.20;60.70;;;;;;4882294;29;20072;-82
2021/03/11 15:15:48;;;;;;;0.63;0.63;;;15.10;61.00;;;;;;4882405;29;20048;-85
2021/03/11 15:21:40;;;;;;;1.25;0.88;;;14.70;59.30;;;;;;4882096;29;20497;-82
2021/03/11 15:27:28;;;;;;;1.08;0.80;;;14.00;60.20;;;;;;4881975;29;20047;-81
2021/03/11 15:33:17;;;;;;;0.68;0.68;;;13.90;62.00;;;;;;4882035;29;20102;-82
2021/03/11 15:39:06;;;;;;;1.20;1.00;;;13.50;61.70;;;;;;4881805;29;20493;-82
2021/03/11 15:44:54;;;;;;;0.88;0.85;;;13.30;62.40;;;;;;4881712;29;20037;-82
2021/03/11 15:50:43;;;;;;;0.60;0.60;;;13.40;63.80;;;;;;4881825;29;20496;-83
2021/03/11 15:56:31;;;;;;;5.78;1.35;;;13.50;64.00;;;;;;4881706;29;20623;-82
2021/03/11 16:02:21;;;;;;;1.30;0.80;;;12.40;62.70;;;;;;4881361;29;20032;-84
2021/03/11 16:08:10;;;;;;;2.03;1.50;;;11.90;64.20;;;;;;4880887;29;20044;-83
2021/03/11 16:13:59;;;;;;;1.70;1.02;;;11.70;65.60;;;;;;4881289;29;20112;-85
2021/03/11 16:19:47;;;;;;;7.30;2.60;;;11.50;66.50;;;;;;4881387;29;20051;-85
2021/03/11 16:29:49;;;;;;;2.85;1.42;;;11.30;66.90;;;;;;4881390;29;20398;-88
2021/03/11 16:35:37;;;;;;;3.05;1.25;;;11.00;68.10;;;;;;4881619;29;20160;-86
2021/03/11 16:41:26;;;;;;;2.40;1.23;;;10.90;69.30;;;;;;4881795;29;20044;-87
2021/03/11 16:47:15;;;;;;;1.27;0.82;;;10.80;69.50;;;;;;4881016;29;20040;-86
2021/03/11 16:53:04;;;;;;;1.75;0.93;;;10.80;70.10;;;;;;4891809;29;20592;-91
2021/03/11 16:58:53;;;;;;;2.95;1.67;;;10.80;70.70;;;;;;4881877;29;20040;-89
2021/03/11 17:04:42;;;;;;;2.50;1.35;;;10.70;71.20;;;;;;4882596;29;20040;-90
2021/03/11 17:10:30;;;;;;;1.88;1.35;;;10.60;72.00;;;;;;4881716;29;20044;-88
2021/03/11 17:16:19;;;;;;;3.80;2.00;;;10.50;72.50;;;;;;4881523;29;20048;-87
2021/03/11 17:22:07;;;;;;;3.15;1.70;;;10.40;73.30;;;;;;4880499;29;20438;-86
2021/03/11 17:31:57;;;;;;;3.60;1.63;;;10.30;74.70;;;;;;4880413;29;20095;-86
2021/03/11 17:37:45;;;;;;;3.88;1.65;;;10.30;75.80;;;;;;4880582;29;20089;-86
2021/03/11 17:43:35;;;;;;;4.00;1.80;;;10.30;76.20;;;;;;4880388;29;20098;-85
2021/03/11 17:49:24;;;;;;;2.08;1.52;;;10.20;76.70;;;;;;4880259;29;20156;-86
2021/03/11 17:55:13;;;;;;;4.05;1.98;;;10.10;77.30;;;;;;4880056;29;20108;-84
2021/03/11 18:01:02;;;;;;;5.90;2.65;;;10.10;78.10;;;;;;4880178;29;20525;-84
2021/03/11 18:06:51;;;;;;;2.92;1.67;;;10.00;78.50;;;;;;4880290;29;20454;-86
2021/03/11 18:12:39;;;;;;;3.10;1.52;;;10.00;78.70;;;;;;4888105;29;20169;-87
2021/03/11 18:18:29;;;;;;;2.03;1.38;;;9.90;79.10;;;;;;4880754;29;20478;-86
2021/03/11 18:24:18;;;;;;;3.55;1.73;;;9.70;79.60;;;;;;4880557;29;20048;-86
2021/03/11 18:34:03;;;;;;;1.88;1.20;;;9.60;80.10;;;;;;4883243;29;20425;-85
2021/03/11 18:39:53;;;;;;;2.25;1.40;;;9.50;80.50;;;;;;4884442;29;20056;-90
2021/03/11 18:45:43;;;;;;;1.75;1.33;;;9.40;80.90;;;;;;4885249;29;20053;-90
2021/03/11 18:51:33;;;;;;;4.53;1.85;;;9.30;81.30;;;;;;4884917;29;20414;-90
2021/03/11 18:57:23;;;;;;;4.22;1.73;;;9.20;81.60;;;;;;4885121;29;20036;-90
2021/03/11 19:03:12;;;;;;;3.20;1.65;;;9.20;82.20;;;;;;4885667;29;20450;-92
2021/03/11 19:09:00;;;;;;;4.10;2.00;;;9.20;82.70;;;;;;4883896;29;20055;-91
2021/03/11 19:14:49;;;;;;;3.80;1.85;;;9.30;83.00;;;;;;4883287;29;20047;-90
2021/03/11 19:20:39;;;;;;;6.55;2.50;;;9.30;83.40;;;;;;4883143;29;20116;-91
2021/03/11 19:26:28;;;;;;;2.55;1.48;;;9.30;83.20;;;;;;4884356;29;20036;-92
2021/03/11 19:36:10;;;;;;;2.65;1.38;;;9.00;83.60;;;;;;4893307;29;20071;-86
2021/03/11 19:41:59;;;;;;;1.77;1.05;;;9.00;84.20;;;;;;4883138;29;20489;-91
2021/03/11 19:47:50;;;;;;;3.75;1.65;;;9.00;84.40;;;;;;4883291;29;20049;-89
2021/03/11 19:53:38;;;;;;;2.95;1.63;;;9.00;84.80;;;;;;4882641;29;20160;-88
2021/03/11 19:59:26;;;;;;;4.68;1.40;;;9.00;85.00;;;;;;4883335;29;20040;-91
2021/03/11 20:05:18;;;;;;;13.85;6.20;;;9.00;85.00;;;;;;4881908;29;20044;-87
2021/03/11 20:11:07;;;;;;;4.75;1.80;;;9.00;85.40;;;;;;4881632;29;20572;-88
2021/03/11 20:16:56;;;;;;;5.78;1.77;;;9.10;85.70;;;;;;4883869;29;20386;-90
2021/03/11 20:22:44;;;;;;;3.38;1.38;;;8.90;84.40;;;;;;4885258;29;20039;-94
2021/03/11 20:28:33;;;;;;;3.03;1.52;;;8.30;83.60;;;;;;4882671;29;20525;-88
2021/03/11 20:38:18;;;;;;;0.90;0.90;;;7.80;85.20;;;;;;4894429;29;20048;-91
2021/03/11 20:44:08;;;;;;;1.15;0.82;;;7.70;85.60;;;;;;4883858;29;20045;-92
2021/03/11 20:49:56;;;;;;;1.48;1.10;;;7.70;86.10;;;;;;4882879;29;20044;-92
2021/03/11 20:55:46;;;;;;;6.38;2.22;;;7.70;86.80;;;;;;4888586;29;20058;-94
2021/03/11 21:01:36;;;;;;;2.78;1.40;;;7.80;87.10;;;;;;4904949;29;20023;-91
2021/03/11 21:07:25;;;;;;;1.23;1.02;;;7.80;87.40;;;;;;4891902;29;20066;-95
2021/03/11 21:13:13;;;;;;;1.23;0.85;;;7.70;87.30;;;;;;4896530;29;20113;-92
2021/03/11 21:19:09;;;;;;;1.40;1.10;;;7.70;87.50;;;;;;4886204;29;20076;-91
2021/03/11 21:24:57;;;;;;;4.68;1.90;;;7.70;88.30;;;;;;4883794;29;20083;-90
2021/03/11 21:30:50;;;;;;;5.32;1.65;;;7.70;88.60;;;;;;4885512;29;20098;-90
2021/03/11 21:40:46;;;;;;;0.82;0.82;;;7.70;88.80;;;;;;4886108;29;20063;-93
2021/03/11 21:46:34;;;;;;;1.45;0.98;;;7.60;89.10;;;;;;4886283;29;20047;-92
2021/03/11 21:52:23;;;;;;;3.22;1.65;;;7.70;89.80;;;;;;4881939;29;20055;-93
2021/03/11 21:58:11;;;;;;;4.18;1.65;;;7.70;90.00;;;;;;4884023;29;20485;-94
2021/03/11 22:04:00;;;;;;;4.75;1.25;;;7.70;90.10;;;;;;4885425;29;20509;-93
2021/03/11 22:09:49;;;;;;;1.02;0.85;;;7.70;90.20;;;;;;4888474;29;20444;-90
2021/03/11 22:15:38;;;;;;;0.70;0.68;;;7.70;90.30;;;;;;4885807;29;20040;-92
2021/03/11 22:21:28;;;;;;;4.68;2.15;;;7.60;90.40;;;;;;4888396;29;20061;-91
2021/03/11 22:27:17;;;;;;;4.90;1.85;;;7.70;90.50;;;;;;4896415;29;20602;-92
2021/03/11 22:33:12;;;;;;;6.30;1.90;;;7.60;90.60;;;;;;4887145;29;20073;-92
2021/03/11 22:42:54;;;;;;;6.13;1.95;;;7.60;90.80;;;;;;4886225;29;20036;-92
2021/03/11 22:48:43;;;;;;;3.97;1.50;;;7.60;90.90;;;;;;4887998;29;20496;-94
2021/03/11 22:54:33;;;;;;;2.47;1.30;;;7.60;91.00;;;;;;4884160;29;20096;-94
2021/03/11 23:00:27;;;;;;;4.28;1.52;;;7.60;91.10;;;;;;4883694;29;20738;-90
2021/03/11 23:06:15;;;;;;;3.97;1.80;;;7.60;91.10;;;;;;4891366;29;20508;-93
2021/03/11 23:12:06;;;;;;;2.63;1.38;;;7.60;91.20;;;;;;4884510;29;20051;-92
2021/03/11 23:17:56;;;;;;;3.33;1.63;;;7.50;91.10;;;;;;4883455;29;20126;-89
2021/03/11 23:23:52;;;;;;;3.50;1.58;;;7.50;91.30;;;;;;4882931;29;20147;-91
2021/03/11 23:29:40;;;;;;;1.52;1.20;;;7.50;91.40;;;;;;4883122;29;20542;-92
2021/03/11 23:35:29;;;;;;;6.07;1.80;;;7.40;91.40;;;;;;4883154;29;20072;-91
2021/03/11 23:45:20;;;;;;;2.05;1.13;;;7.40;91.50;;;;;;4882822;29;20112;-91
2021/03/11 23:51:08;;;;;;;2.60;1.52;;;7.40;91.60;;;;;;4882795;29;20136;-92
2021/03/11 23:56:58;;;;;;;5.65;2.28;;;7.40;91.70;;;;;;4882372;29;20418;-91
